createdAt,value
2017-05-30T00:00:09.684Z,99.99
2017-05-30T00:10:09.739Z,99.99
2017-05-30T00:20:09.695Z,99.99
2017-05-30T00:30:09.756Z,99.99
2017-05-30T00:40:09.727Z,99.99
2017-05-30T00:50:09.684Z,99.99
2017-05-30T01:00:09.746Z,99.99
2017-05-30T01:10:09.698Z,99.99
2017-05-30T01:20:09.780Z,99.99
2017-05-30T01:30:09.733Z,99.99
2017-05-30T01:40:09.700Z,99.99
2017-05-30T01:50:09.905Z,99.99
2017-05-30T02:00:09.718Z,99.99
2017-05-30T02:10:09.781Z,99.99
2017-05-30T02:20:09.753Z,99.99
2017-05-30T02:30:09.699Z,99.99
2017-05-30T02:40:09.743Z,99.99
2017-05-30T02:50:09.707Z,99.99
2017-05-30T03:00:09.764Z,99.99
2017-05-30T03:10:09.745Z,99.99
2017-05-30T03:20:09.732Z,99.99
2017-05-30T03:30:09.772Z,99.99
2017-05-30T03:40:09.722Z,99.99
2017-05-30T03:50:09.790Z,99.99
2017-05-30T04:00:09.741Z,99.99
2017-05-30T04:10:09.711Z,99.99
2017-05-30T04:20:09.771Z,99.99
2017-05-30T04:30:09.741Z,99.99
2017-05-30T04:40:09.703Z,99.99
2017-05-30T04:50:09.761Z,99.99
2017-05-30T05:00:09.700Z,99.99
2017-05-30T05:10:09.793Z,99.99
2017-05-30T05:20:09.730Z,99.99
2017-05-30T05:30:09.799Z,99.99
2017-05-30T05:40:09.778Z,99.99
2017-05-30T05:50:09.728Z,99.99
2017-05-30T06:00:09.783Z,99.99
2017-05-30T06:10:09.739Z,92.45
2017-05-30T06:20:09.812Z,83.38
2017-05-30T06:30:09.774Z,76.23
2017-05-30T06:40:09.725Z,67.5
2017-05-30T06:50:09.808Z,72.15
2017-05-30T07:00:09.752Z,82.84
2017-05-30T07:10:09.730Z,87.3
2017-05-30T07:20:09.704Z,79.17
2017-05-30T07:30:09.745Z,67.34
2017-05-30T07:40:09.792Z,62.93
2017-05-30T07:50:09.895Z,58.12
2017-05-30T08:00:09.842Z,54.15
2017-05-30T08:10:09.803Z,47.01
2017-05-30T08:20:09.789Z,49.33
2017-05-30T08:30:09.950Z,46.31
2017-05-30T08:40:09.934Z,48.65
2017-05-30T08:50:09.824Z,49.26
2017-05-30T09:00:09.806Z,48.55
2017-05-30T09:10:09.868Z,52.89
2017-05-30T09:20:09.819Z,58.97
2017-05-30T09:30:09.795Z,63.7
2017-05-30T09:40:09.943Z,66.83
2017-05-30T09:50:09.795Z,67.54
2017-05-30T10:00:09.854Z,66.6
2017-05-30T10:10:09.829Z,67.63
2017-05-30T10:20:09.799Z,68.54
2017-05-30T10:30:09.863Z,66.3
2017-05-30T10:40:09.826Z,68.7
2017-05-30T10:50:09.895Z,67.24
2017-05-30T11:00:09.818Z,66.96
2017-05-30T11:10:09.781Z,67.54
2017-05-30T11:20:09.867Z,66.69
2017-05-30T11:30:09.821Z,71.64
2017-05-30T11:40:09.893Z,71.61
2017-05-30T11:50:09.855Z,68.76
2017-05-30T12:00:09.815Z,75.34
2017-05-30T12:10:09.874Z,83.4
2017-05-30T12:20:09.857Z,87.31
2017-05-30T12:30:09.906Z,83.44
2017-05-30T12:40:09.854Z,80.52
2017-05-30T12:50:09.982Z,76
2017-05-30T13:00:09.899Z,79.14
2017-05-30T13:10:09.857Z,88.37
2017-05-30T13:20:09.915Z,91.05
2017-05-30T13:30:09.874Z,88.63
2017-05-30T13:40:09.863Z,84.56
2017-05-30T13:50:09.934Z,79.6
2017-05-30T14:00:10.873Z,76.72
2017-05-30T14:10:09.925Z,72.39
2017-05-30T14:20:09.886Z,69.86
2017-05-30T14:30:09.857Z,71.55
2017-05-30T14:40:09.905Z,73.26
2017-05-30T14:50:09.892Z,74.74
2017-05-30T15:00:09.924Z,71.64
2017-05-30T15:10:10.010Z,73.58
2017-05-30T15:20:09.956Z,77.42
2017-05-30T15:30:09.921Z,71.83
2017-05-30T15:40:09.888Z,72.71
2017-05-30T15:50:10.924Z,73.96
2017-05-30T16:00:09.888Z,73.35
2017-05-30T16:10:09.853Z,73.37
2017-05-30T16:20:09.878Z,74.76
2017-05-30T16:30:09.859Z,76.41
2017-05-30T16:40:10.921Z,78.31
2017-05-30T16:50:09.885Z,79.37
2017-05-30T17:00:09.911Z,77.63
2017-05-30T17:10:10.876Z,79.33
2017-05-30T17:20:09.883Z,79.39
2017-05-30T17:30:09.883Z,79.2
2017-05-30T17:40:09.889Z,79.2
2017-05-30T17:50:09.914Z,80.8
2017-05-30T18:00:09.962Z,81.38
2017-05-30T18:10:09.946Z,84.53
2017-05-30T18:20:10.059Z,83.09
2017-05-30T18:30:09.978Z,84.83
2017-05-30T18:40:11.993Z,84.31
2017-05-30T18:50:10.050Z,82.14
2017-05-30T19:00:10.972Z,82.87
2017-05-30T19:10:10.962Z,83.8
2017-05-30T19:20:09.972Z,82.83
2017-05-30T19:30:09.963Z,82.89
2017-05-30T19:40:09.993Z,79.33
2017-05-30T19:50:09.999Z,79.58
2017-05-30T20:00:09.913Z,81.17
2017-05-30T20:10:10.001Z,82.76
2017-05-30T20:20:09.933Z,83.87
2017-05-30T20:30:10.084Z,83.64
2017-05-30T20:40:09.963Z,82.59
2017-05-30T20:50:09.901Z,83.74
2017-05-30T21:00:09.972Z,85.71
2017-05-30T21:10:09.969Z,87.44
2017-05-30T21:20:10.108Z,88.26
2017-05-30T21:30:09.978Z,87.63
2017-05-30T21:40:09.950Z,87.63
2017-05-30T21:50:09.978Z,89.26
2017-05-30T22:00:10.078Z,90.75
2017-05-30T22:10:10.212Z,91.33
2017-05-30T22:20:14.440Z,92.82
2017-05-30T22:30:09.949Z,93.78
2017-05-30T22:40:12.004Z,95.12
2017-05-30T22:50:09.949Z,96.47
2017-05-30T23:00:09.904Z,98.52
2017-05-30T23:10:09.982Z,99.19
2017-05-30T23:20:09.965Z,98.52
2017-05-30T23:30:12.015Z,97.66
2017-05-30T23:40:10.101Z,98.14
2017-05-30T23:50:15.688Z,99.19
